createdAt,value
2023-04-18T00:00:06.132Z,71.2724
2023-04-18T00:01:07.133Z,71.5612
2023-04-18T00:02:08.263Z,71.4570
2023-04-18T00:03:09.528Z,71.4533
2023-04-18T00:04:10.524Z,71.6706
2023-04-18T00:05:11.429Z,71.8677
2023-04-18T00:06:12.355Z,71.6404
2023-04-18T00:07:13.390Z,71.8199
2023-04-18T00:08:14.477Z,72.0951
2023-04-18T00:09:15.486Z,71.8153
2023-04-18T00:10:16.511Z,71.7321
2023-04-18T00:11:17.532Z,71.6822
2023-04-18T00:12:18.570Z,71.5057
2023-04-18T00:13:19.673Z,71.1074
2023-04-18T00:14:20.664Z,71.5328
2023-04-18T00:15:21.695Z,71.5773
2023-04-18T00:16:22.816Z,71.5902
2023-04-18T00:17:23.825Z,71.2378
2023-04-18T00:18:24.851Z,71.1045
2023-04-18T00:19:25.856Z,71.0028
2023-04-18T00:20:26.893Z,70.4766
2023-04-18T00:21:27.963Z,70.5371
2023-04-18T00:22:28.973Z,70.5071
2023-04-18T00:23:30.055Z,70.0173
2023-04-18T00:24:31.030Z,70.0529
2023-04-18T00:25:32.117Z,70.1800
2023-04-18T00:26:33.109Z,70.1264
2023-04-18T00:27:34.176Z,69.9834
2023-04-18T00:28:35.267Z,69.8598
2023-04-18T00:29:36.237Z,69.9944
2023-04-18T00:30:37.354Z,70.3483
2023-04-18T00:31:38.323Z,70.1327
2023-04-18T00:32:39.410Z,70.2765
2023-04-18T00:33:40.461Z,70.4937
2023-04-18T00:34:41.462Z,70.7989
2023-04-18T00:35:42.475Z,70.7137
2023-04-18T00:36:43.546Z,70.3495
2023-04-18T00:37:44.615Z,69.9666
2023-04-18T00:38:45.658Z,70.2895
2023-04-18T00:39:46.621Z,70.7313
2023-04-18T00:40:47.689Z,70.9157
2023-04-18T00:41:48.687Z,71.0124
2023-04-18T00:42:49.754Z,71.3834
2023-04-18T00:43:50.737Z,71.2832
2023-04-18T00:44:51.731Z,71.4555
2023-04-18T00:45:52.754Z,71.0552
2023-04-18T00:46:53.792Z,70.3531
2023-04-18T00:47:54.884Z,69.8652
2023-04-18T00:48:55.893Z,69.8316
2023-04-18T00:49:56.941Z,69.6296
2023-04-18T00:50:57.944Z,69.6273
2023-04-18T00:51:58.996Z,70.3921
2023-04-18T00:53:00.048Z,70.4817
2023-04-18T00:54:01.124Z,70.1195
2023-04-18T00:55:02.115Z,70.2449
2023-04-18T00:56:03.170Z,70.3662
2023-04-18T00:57:04.196Z,69.9268
2023-04-18T00:58:05.241Z,69.8501
2023-04-18T00:59:06.314Z,70.4754
2023-04-18T01:00:07.312Z,70.6434
2023-04-18T01:01:08.393Z,70.2601
2023-04-18T01:02:09.420Z,69.9169
2023-04-18T01:03:10.715Z,69.4663
2023-04-18T01:04:11.699Z,69.6490
2023-04-18T01:05:12.503Z,70.0770
2023-04-18T01:06:13.545Z,70.2004
2023-04-18T01:07:14.577Z,69.3310
2023-04-18T01:08:15.619Z,69.2364
2023-04-18T01:09:16.712Z,69.9208
2023-04-18T01:10:17.709Z,70.7386
2023-04-18T01:11:18.754Z,70.7773
2023-04-18T01:12:19.781Z,69.6962
2023-04-18T01:13:20.826Z,69.3979
2023-04-18T01:14:21.916Z,69.5561
2023-04-18T01:15:22.946Z,70.0029
2023-04-18T01:16:24.069Z,69.6493
2023-04-18T01:17:25.015Z,69.4581
2023-04-18T01:18:26.007Z,69.6413
2023-04-18T01:19:27.115Z,69.6444
2023-04-18T01:20:28.110Z,69.0637
2023-04-18T01:21:29.164Z,69.2359
2023-04-18T01:22:30.187Z,70.2758
2023-04-18T01:23:31.240Z,70.4859
2023-04-18T01:24:32.297Z,70.3878
2023-04-18T01:25:33.303Z,70.4260
2023-04-18T01:26:34.351Z,70.2078
2023-04-18T01:27:35.382Z,70.1317
2023-04-18T01:28:36.428Z,70.1973
2023-04-18T01:29:38.959Z,70.0499
2023-04-18T01:30:38.583Z,69.7718
2023-04-18T01:31:39.596Z,69.4107
2023-04-18T01:32:40.736Z,69.6750
2023-04-18T01:33:41.643Z,69.9852
2023-04-18T01:34:42.707Z,69.7506
2023-04-18T01:35:43.735Z,69.4703
2023-04-18T01:36:44.765Z,70.2020
2023-04-18T01:37:45.809Z,70.4590
2023-04-18T01:38:46.848Z,69.9343
2023-04-18T01:39:47.919Z,69.8247
2023-04-18T01:40:48.917Z,69.6106
2023-04-18T01:41:49.946Z,69.9591
2023-04-18T01:42:51.009Z,70.3952
2023-04-18T01:43:52.034Z,70.0852
2023-04-18T01:44:53.109Z,69.8352
2023-04-18T01:45:54.104Z,69.4030
2023-04-18T01:46:55.204Z,69.1479
2023-04-18T01:47:56.272Z,68.9669
2023-04-18T01:48:57.234Z,69.3251
2023-04-18T01:49:58.286Z,69.8053
2023-04-18T01:50:59.310Z,70.1952
2023-04-18T01:52:00.360Z,70.4314
2023-04-18T01:53:01.394Z,70.5694
2023-04-18T01:54:02.425Z,70.4090
2023-04-18T01:55:03.480Z,70.6039
2023-04-18T01:56:04.497Z,71.1735
2023-04-18T01:57:05.539Z,71.3561
2023-04-18T01:58:06.577Z,71.3904
2023-04-18T01:59:07.620Z,71.1949
2023-04-18T02:00:08.682Z,71.6195
2023-04-18T02:01:09.734Z,71.9529
2023-04-18T02:02:10.822Z,71.4874
2023-04-18T02:03:11.832Z,71.9672
2023-04-18T02:04:13.158Z,71.6489
2023-04-18T02:05:13.879Z,70.8664
2023-04-18T02:06:14.954Z,70.5259
2023-04-18T02:07:15.967Z,71.2636
2023-04-18T02:08:16.945Z,71.7308
2023-04-18T02:09:17.992Z,71.8127
2023-04-18T02:10:19.068Z,71.8301
2023-04-18T02:11:20.111Z,72.0123
2023-04-18T02:12:21.118Z,72.0333
2023-04-18T02:13:22.157Z,72.1507
2023-04-18T02:14:23.181Z,72.0641
2023-04-18T02:15:24.263Z,71.8195
2023-04-18T02:16:25.281Z,71.7760
2023-04-18T02:17:26.293Z,71.8261
2023-04-18T02:18:27.359Z,71.5505
2023-04-18T02:19:28.379Z,71.5846
2023-04-18T02:20:29.436Z,71.5351
2023-04-18T02:21:30.487Z,71.4202
2023-04-18T02:22:31.510Z,71.2059
2023-04-18T02:23:32.565Z,70.9971
2023-04-18T02:24:33.594Z,70.8994
2023-04-18T02:25:34.675Z,71.1847
2023-04-18T02:26:35.706Z,71.3268
2023-04-18T02:27:36.718Z,71.1181
2023-04-18T02:28:37.754Z,71.2798
2023-04-18T02:29:38.816Z,71.3748
2023-04-18T02:30:39.896Z,71.5502
2023-04-18T02:31:40.902Z,71.5212
2023-04-18T02:32:41.922Z,72.1884
2023-04-18T02:33:42.936Z,71.9320
2023-04-18T02:34:43.998Z,71.4546
2023-04-18T02:35:45.045Z,71.5456
2023-04-18T02:36:46.083Z,72.0801
2023-04-18T02:37:47.113Z,71.9059
2023-04-18T02:38:48.160Z,71.4586
2023-04-18T02:39:49.209Z,71.4281
2023-04-18T02:40:50.253Z,71.7737
2023-04-18T02:41:51.321Z,71.3171
2023-04-18T02:42:52.373Z,70.8320
2023-04-18T02:43:53.369Z,70.2917
2023-04-18T02:44:54.398Z,70.6986
2023-04-18T02:45:55.499Z,70.9383
2023-04-18T02:46:56.469Z,71.2165
2023-04-18T02:47:57.580Z,71.3770
2023-04-18T02:48:58.572Z,71.2993
2023-04-18T02:49:59.631Z,71.4830
2023-04-18T02:51:00.695Z,71.4518
2023-04-18T02:52:01.709Z,71.7546
2023-04-18T02:53:02.768Z,71.6662
2023-04-18T02:54:03.828Z,71.2122
2023-04-18T02:55:04.832Z,70.8358
2023-04-18T02:56:05.929Z,70.9904
2023-04-18T02:57:06.932Z,70.8237
2023-04-18T02:58:07.998Z,70.8757
2023-04-18T02:59:08.996Z,71.2483
2023-04-18T03:00:10.041Z,71.0261
2023-04-18T03:01:11.141Z,71.3748
2023-04-18T03:02:12.129Z,71.5987
2023-04-18T03:03:13.229Z,71.9416
2023-04-18T03:04:14.464Z,71.5229
2023-04-18T03:05:15.217Z,71.6605
2023-04-18T03:06:16.379Z,72.2957
2023-04-18T03:07:17.325Z,72.3928
2023-04-18T03:08:18.360Z,72.4982
2023-04-18T03:09:19.411Z,71.8258
2023-04-18T03:10:20.494Z,71.2187
2023-04-18T03:11:21.574Z,70.9559
2023-04-18T03:12:22.589Z,71.4240
2023-04-18T03:13:23.661Z,71.5364
2023-04-18T03:14:24.672Z,71.4994
2023-04-18T03:15:25.718Z,71.7896
2023-04-18T03:16:26.829Z,72.2615
2023-04-18T03:17:27.806Z,72.2776
2023-04-18T03:18:28.867Z,72.1565
2023-04-18T03:19:29.858Z,72.1005
2023-04-18T03:20:30.918Z,72.1256
2023-04-18T03:21:32.001Z,71.7928
2023-04-18T03:22:33.042Z,71.5705
2023-04-18T03:23:34.052Z,72.2123
2023-04-18T03:24:35.121Z,71.9792
2023-04-18T03:25:36.129Z,71.7149
2023-04-18T03:26:37.207Z,71.9774
2023-04-18T03:27:38.267Z,71.6040
2023-04-18T03:28:39.285Z,71.8599
2023-04-18T03:29:40.295Z,71.8848
2023-04-18T03:30:41.336Z,71.4638
2023-04-18T03:31:42.523Z,71.2274
2023-04-18T03:32:43.525Z,71.3013
2023-04-18T03:33:44.475Z,72.0597
2023-04-18T03:34:45.516Z,72.2557
2023-04-18T03:35:46.535Z,71.5338
2023-04-18T03:36:48.156Z,71.4729
2023-04-18T03:37:48.615Z,71.6291
2023-04-18T03:38:49.756Z,71.2544
2023-04-18T03:39:50.717Z,70.8260
2023-04-18T03:40:51.736Z,70.4068
2023-04-18T03:41:52.773Z,70.3598
2023-04-18T03:42:53.851Z,70.4701
2023-04-18T03:43:54.866Z,70.4248
2023-04-18T03:44:55.880Z,70.6604
2023-04-18T03:45:57.131Z,70.5454
2023-04-18T03:46:57.958Z,70.5581
2023-04-18T03:47:59.041Z,70.4959
2023-04-18T03:49:00.036Z,70.3295
2023-04-18T03:50:01.064Z,70.5018
2023-04-18T03:51:02.103Z,70.0433
2023-04-18T03:52:03.155Z,70.0565
2023-04-18T03:53:04.213Z,70.0937
2023-04-18T03:54:05.255Z,70.7973
2023-04-18T03:55:06.257Z,71.2106
2023-04-18T03:56:07.326Z,70.4146
2023-04-18T03:57:08.517Z,69.8424
2023-04-18T03:58:09.457Z,70.6798
2023-04-18T03:59:10.460Z,71.3490
2023-04-18T04:00:11.464Z,71.5097
2023-04-18T04:01:12.498Z,71.7262
2023-04-18T04:02:13.592Z,71.7555
2023-04-18T04:03:14.698Z,72.0154
2023-04-18T04:04:16.216Z,71.7993
2023-04-18T04:05:16.677Z,70.7052
2023-04-18T04:06:17.744Z,70.3835
2023-04-18T04:07:18.741Z,70.8727
2023-04-18T04:08:19.842Z,70.8671
2023-04-18T04:09:20.835Z,70.1453
2023-04-18T04:10:21.877Z,69.6434
2023-04-18T04:11:23.110Z,69.7559
2023-04-18T04:12:23.944Z,70.2331
2023-04-18T04:13:24.998Z,70.5623
2023-04-18T04:14:26.150Z,71.0113
2023-04-18T04:15:27.081Z,71.1598
2023-04-18T04:16:28.294Z,70.7762
2023-04-18T04:17:29.339Z,70.2899
2023-04-18T04:18:30.222Z,70.1244
2023-04-18T04:19:31.247Z,70.1985
2023-04-18T04:20:32.271Z,70.5940
2023-04-18T04:21:33.282Z,70.8749
2023-04-18T04:22:34.360Z,71.1534
2023-04-18T04:23:35.438Z,71.3804
2023-04-18T04:24:36.445Z,71.5433
2023-04-18T04:25:37.448Z,71.3780
2023-04-18T04:26:38.634Z,71.1794
2023-04-18T04:27:39.545Z,70.9549
2023-04-18T04:28:40.624Z,70.9800
2023-04-18T04:29:41.650Z,70.6621
2023-04-18T04:30:42.656Z,70.8773
2023-04-18T04:31:43.813Z,70.8918
2023-04-18T04:32:44.781Z,70.9399
2023-04-18T04:33:45.810Z,70.4066
2023-04-18T04:34:46.828Z,70.7495
2023-04-18T04:35:47.886Z,70.9512
2023-04-18T04:36:48.909Z,70.4501
2023-04-18T04:37:49.938Z,70.1372
2023-04-18T04:38:51.018Z,70.1900
2023-04-18T04:39:52.000Z,70.0557
2023-04-18T04:40:53.052Z,70.5360
2023-04-18T04:41:54.120Z,70.7149
2023-04-18T04:42:55.115Z,70.8946
2023-04-18T04:43:56.179Z,69.9522
2023-04-18T04:44:57.275Z,69.8629
2023-04-18T04:45:58.253Z,70.5092
2023-04-18T04:46:59.438Z,71.0127
2023-04-18T04:48:00.400Z,71.4914
2023-04-18T04:49:01.401Z,71.1786
2023-04-18T04:50:02.388Z,70.4814
2023-04-18T04:51:03.596Z,70.1232
2023-04-18T04:52:04.464Z,69.6054
2023-04-18T04:53:05.502Z,70.7672
2023-04-18T04:54:06.551Z,71.5192
2023-04-18T04:55:07.697Z,71.7738
2023-04-18T04:56:08.629Z,71.0687
2023-04-18T04:57:09.669Z,71.0917
2023-04-18T04:58:10.698Z,71.0014
2023-04-18T04:59:11.738Z,70.5320
2023-04-18T05:00:12.745Z,70.2297
2023-04-18T05:01:13.874Z,69.7921
2023-04-18T05:02:14.959Z,70.0560
2023-04-18T05:03:16.070Z,70.2657
2023-04-18T05:04:17.477Z,70.5444
2023-04-18T05:05:18.073Z,69.8164
2023-04-18T05:06:19.061Z,70.0046
2023-04-18T05:07:20.212Z,70.5165
2023-04-18T05:08:21.134Z,69.8539
2023-04-18T05:09:22.301Z,69.5839
2023-04-18T05:10:23.202Z,69.9920
2023-04-18T05:11:24.254Z,70.2934
2023-04-18T05:12:25.295Z,70.5300
2023-04-18T05:13:26.340Z,70.7244
2023-04-18T05:14:27.419Z,70.9238
2023-04-18T05:15:28.425Z,70.7981
2023-04-18T05:16:29.456Z,70.6656
2023-04-18T05:17:30.510Z,70.7184
2023-04-18T05:18:33.059Z,70.7063
2023-04-18T05:19:32.599Z,70.7100
2023-04-18T05:20:33.579Z,70.3255
2023-04-18T05:21:34.610Z,69.7824
2023-04-18T05:22:35.722Z,69.6322
2023-04-18T05:23:36.681Z,68.8615
2023-04-18T05:24:37.800Z,68.1772
2023-04-18T05:25:38.767Z,68.7809
2023-04-18T05:26:39.794Z,69.2564
2023-04-18T05:27:40.870Z,69.5265
2023-04-18T05:28:41.907Z,68.6395
2023-04-18T05:29:42.970Z,68.6998
2023-04-18T05:30:44.024Z,69.1076
2023-04-18T05:31:44.999Z,69.4767
2023-04-18T05:32:46.190Z,69.3240
2023-04-18T05:33:47.086Z,69.9053
2023-04-18T05:34:48.167Z,70.4185
2023-04-18T05:35:49.181Z,70.2502
2023-04-18T05:36:50.263Z,70.5860
2023-04-18T05:37:51.202Z,71.2401
2023-04-18T05:38:52.276Z,71.0152
2023-04-18T05:39:53.350Z,70.3010
2023-04-18T05:40:54.363Z,69.6190
2023-04-18T05:41:55.391Z,69.3239
2023-04-18T05:42:56.417Z,69.4637
2023-04-18T05:44:04.923Z,70.1844
2023-04-18T05:44:58.535Z,70.8318
2023-04-18T05:45:59.623Z,70.1577
2023-04-18T05:47:00.560Z,69.5390
2023-04-18T05:48:01.833Z,68.5253
2023-04-18T05:49:02.632Z,68.3337
2023-04-18T05:50:03.755Z,68.9463
2023-04-18T05:51:04.712Z,68.3030
2023-04-18T05:52:05.750Z,68.7605
2023-04-18T05:53:06.809Z,69.3172
2023-04-18T05:54:07.873Z,69.8769
2023-04-18T05:55:08.936Z,70.1775
2023-04-18T05:56:09.958Z,69.7278
2023-04-18T05:57:10.971Z,69.7830
2023-04-18T05:58:12.290Z,69.6058
2023-04-18T05:59:13.046Z,68.9366
2023-04-18T06:00:14.187Z,68.9857
2023-04-18T06:01:15.342Z,69.8506
2023-04-18T06:02:16.165Z,70.1612
2023-04-18T06:03:17.543Z,70.6205
2023-04-18T06:04:18.464Z,70.5128
2023-04-18T06:05:19.719Z,70.8580
2023-04-18T06:06:20.254Z,70.1751
2023-04-18T06:07:21.306Z,69.8408
2023-04-18T06:08:22.344Z,69.1810
2023-04-18T06:09:23.412Z,68.9204
2023-04-18T06:10:24.467Z,68.7670
2023-04-18T06:11:25.509Z,68.6683
2023-04-18T06:12:26.524Z,68.1183
2023-04-18T06:13:27.556Z,67.6432
2023-04-18T06:14:28.581Z,68.2891
2023-04-18T06:15:29.665Z,68.6609
2023-04-18T06:16:30.733Z,68.5391
2023-04-18T06:17:31.743Z,68.7007
2023-04-18T06:18:32.749Z,69.4216
2023-04-18T06:19:33.803Z,69.6444
2023-04-18T06:20:34.826Z,69.0156
2023-04-18T06:21:35.851Z,69.4630
2023-04-18T06:22:36.914Z,69.4420
2023-04-18T06:23:37.958Z,69.1355
2023-04-18T06:24:38.966Z,69.1816
2023-04-18T06:25:40.012Z,69.0820
2023-04-18T06:26:41.057Z,69.2806
2023-04-18T06:27:42.092Z,69.3371
2023-04-18T06:28:43.118Z,67.8510
2023-04-18T06:29:44.154Z,67.7958
2023-04-18T06:30:45.151Z,68.3390
2023-04-18T06:31:46.307Z,69.0435
2023-04-18T06:32:47.361Z,69.8519
2023-04-18T06:33:48.258Z,69.2384
2023-04-18T06:34:49.310Z,68.5169
2023-04-18T06:35:50.359Z,68.3345
2023-04-18T06:36:51.410Z,68.1939
2023-04-18T06:37:52.640Z,68.2258
2023-04-18T06:38:53.558Z,68.7343
2023-04-18T06:39:54.650Z,69.7418
2023-04-18T06:40:55.663Z,69.8852
2023-04-18T06:41:56.735Z,70.0588
2023-04-18T06:42:57.710Z,70.2539
2023-04-18T06:44:04.229Z,70.5181
2023-04-18T06:44:59.811Z,70.4563
2023-04-18T06:46:00.852Z,70.2000
2023-04-18T06:47:02.162Z,70.3403
2023-04-18T06:48:02.948Z,71.2035
2023-04-18T06:49:03.977Z,71.0773
2023-04-18T06:50:04.988Z,70.8855
2023-04-18T06:51:06.045Z,70.5599
2023-04-18T06:52:07.140Z,70.5550
2023-04-18T06:53:08.171Z,71.0873
2023-04-18T06:54:09.166Z,71.6790
2023-04-18T06:55:10.166Z,71.0249
2023-04-18T06:56:11.231Z,70.4023
2023-04-18T06:57:12.290Z,70.2847
2023-04-18T06:58:13.289Z,70.5085
2023-04-18T06:59:14.514Z,70.1195
2023-04-18T07:00:15.395Z,70.5664
2023-04-18T07:01:16.412Z,71.2704
2023-04-18T07:02:17.498Z,72.2306
2023-04-18T07:03:18.745Z,71.9831
2023-04-18T07:04:19.870Z,72.0298
2023-04-18T07:05:20.518Z,72.4615
2023-04-18T07:06:21.613Z,72.8033
2023-04-18T07:07:22.636Z,72.7893
2023-04-18T07:08:23.654Z,72.4586
2023-04-18T07:09:24.716Z,72.3005
2023-04-18T07:10:25.735Z,72.2893
2023-04-18T07:11:26.843Z,72.6344
2023-04-18T07:12:27.929Z,72.7946
2023-04-18T07:13:28.912Z,72.8547
2023-04-18T07:14:30.820Z,72.0432
2023-04-18T07:15:31.005Z,72.4522
2023-04-18T07:16:32.067Z,72.9838
2023-04-18T07:17:33.168Z,72.9040
2023-04-18T07:18:38.117Z,73.1410
2023-04-18T07:19:35.145Z,73.0130
2023-04-18T07:20:36.195Z,72.7922
2023-04-18T07:21:37.111Z,73.2868
2023-04-18T07:22:38.276Z,73.3827
2023-04-18T07:23:39.317Z,73.1762
2023-04-18T07:24:40.331Z,72.6057
2023-04-18T07:25:41.352Z,72.7490
2023-04-18T07:26:42.398Z,72.9610
2023-04-18T07:27:43.462Z,72.7529
2023-04-18T07:28:44.531Z,72.6546
2023-04-18T07:29:45.525Z,72.4398
2023-04-18T07:30:46.578Z,72.1009
2023-04-18T07:31:47.556Z,71.6083
2023-04-18T07:32:48.754Z,70.7634
2023-04-18T07:33:49.645Z,70.4835
2023-04-18T07:34:50.678Z,70.9251
2023-04-18T07:35:51.739Z,71.8190
2023-04-18T07:36:52.769Z,71.1204
2023-04-18T07:37:53.820Z,71.2855
2023-04-18T07:38:54.848Z,71.7283
2023-04-18T07:39:56.062Z,71.6455
2023-04-18T07:40:56.885Z,71.3615
2023-04-18T07:41:57.872Z,71.0543
2023-04-18T07:42:59.045Z,71.3208
2023-04-18T07:43:59.975Z,71.7570
2023-04-18T07:45:00.999Z,71.1434
2023-04-18T07:46:02.632Z,70.3944
2023-04-18T07:47:02.994Z,69.8468
2023-04-18T07:48:04.127Z,70.5454
2023-04-18T07:49:05.068Z,71.0881
2023-04-18T07:50:06.109Z,71.5385
2023-04-18T07:51:07.589Z,71.2803
2023-04-18T07:52:08.162Z,70.5084
2023-04-18T07:53:09.235Z,70.2275
2023-04-18T07:54:10.242Z,70.5058
2023-04-18T07:55:11.292Z,70.5270
2023-04-18T07:56:12.316Z,70.8790
2023-04-18T07:57:13.822Z,70.1303
2023-04-18T07:58:14.380Z,70.2967
2023-04-18T07:59:15.732Z,70.1044
2023-04-18T08:00:16.467Z,70.8284
2023-04-18T08:01:17.522Z,71.4781
2023-04-18T08:02:18.560Z,71.6217
2023-04-18T08:03:20.113Z,72.1414
2023-04-18T08:04:20.704Z,72.6904
2023-04-18T08:05:21.673Z,71.7387
2023-04-18T08:06:22.646Z,71.1121
2023-04-18T08:07:23.700Z,70.8291
2023-04-18T08:08:24.799Z,70.8287
2023-04-18T08:09:25.805Z,71.5195
2023-04-18T08:10:26.882Z,71.3165
2023-04-18T08:11:27.895Z,70.7900
2023-04-18T08:12:28.922Z,71.0620
2023-04-18T08:13:30.012Z,71.0827
2023-04-18T08:14:30.947Z,70.3412
2023-04-18T08:15:32.028Z,69.5923
2023-04-18T08:16:33.078Z,69.9009
2023-04-18T08:17:34.137Z,69.5261
2023-04-18T08:18:35.179Z,69.6437
2023-04-18T08:19:36.159Z,69.3671
2023-04-18T08:20:37.278Z,69.1740
2023-04-18T08:21:38.221Z,69.7346
2023-04-18T08:22:49.981Z,70.2992
2023-04-18T08:23:40.342Z,69.8343
2023-04-18T08:24:44.549Z,69.2533
2023-04-18T08:25:42.355Z,69.4155
2023-04-18T08:26:43.436Z,70.3392
2023-04-18T08:27:44.431Z,70.3029
2023-04-18T08:28:46.484Z,70.3622
2023-04-18T08:29:46.566Z,70.7182
2023-04-18T08:30:47.562Z,70.2709
2023-04-18T08:31:48.649Z,70.1872
2023-04-18T08:32:49.817Z,70.1595
2023-04-18T08:33:50.699Z,70.0530
2023-04-18T08:34:51.746Z,69.7269
2023-04-18T08:35:52.721Z,69.3611
2023-04-18T08:36:53.785Z,69.0658
2023-04-18T08:37:54.789Z,69.4411
2023-04-18T08:38:55.873Z,69.8961
2023-04-18T08:39:56.869Z,70.0988
2023-04-18T08:40:57.879Z,70.7442
2023-04-18T08:41:58.948Z,71.1785
2023-04-18T08:43:00.008Z,71.2575
2023-04-18T08:44:01.182Z,71.3478
2023-04-18T08:45:02.182Z,71.1806
2023-04-18T08:46:03.375Z,71.2853
2023-04-18T08:47:04.253Z,71.0978
2023-04-18T08:48:05.279Z,70.8694
2023-04-18T08:49:06.425Z,70.7908
2023-04-18T08:50:07.321Z,70.4248
2023-04-18T08:51:08.356Z,70.4391
2023-04-18T08:52:09.405Z,70.0788
2023-04-18T08:53:10.442Z,69.2931
2023-04-18T08:54:11.586Z,68.5317
2023-04-18T08:55:12.529Z,67.7046
2023-04-18T08:56:13.577Z,67.8382
2023-04-18T08:57:14.590Z,67.4231
2023-04-18T08:58:15.679Z,67.3204
2023-04-18T08:59:16.694Z,67.2743
2023-04-18T09:00:17.735Z,67.5005
2023-04-18T09:01:18.769Z,68.6617
2023-04-18T09:02:19.817Z,69.1236
2023-04-18T09:03:20.805Z,69.2461
2023-04-18T09:04:22.076Z,68.6717
2023-04-18T09:05:22.883Z,68.3734
2023-04-18T09:06:24.379Z,68.5392
2023-04-18T09:07:24.978Z,69.1019
2023-04-18T09:08:26.037Z,68.7243
2023-04-18T09:09:27.089Z,67.7374
2023-04-18T09:10:28.142Z,67.0866
2023-04-18T09:11:29.525Z,67.1151
2023-04-18T09:12:30.212Z,67.3939
2023-04-18T09:13:31.243Z,67.3747
2023-04-18T09:14:32.301Z,67.5252
2023-04-18T09:15:33.315Z,67.7059
2023-04-18T09:16:34.478Z,67.5769
2023-04-18T09:17:35.417Z,67.2466
2023-04-18T09:18:36.412Z,67.1679
2023-04-18T09:19:37.546Z,67.6050
2023-04-18T09:20:38.615Z,68.2335
2023-04-18T09:21:39.569Z,68.1943
2023-04-18T09:22:40.600Z,68.3693
2023-04-18T09:23:41.610Z,68.2112
2023-04-18T09:24:42.615Z,68.5191
2023-04-18T09:25:44.958Z,68.8886
2023-04-18T09:26:44.654Z,68.3762
2023-04-18T09:27:45.705Z,67.6266
2023-04-18T09:28:46.738Z,67.6268
2023-04-18T09:29:47.815Z,67.5463
2023-04-18T09:30:48.828Z,68.1687
2023-04-18T09:31:49.873Z,67.7700
2023-04-18T09:32:50.967Z,67.1561
2023-04-18T09:33:51.952Z,66.9092
2023-04-18T09:34:53.152Z,65.6772
2023-04-18T09:35:54.010Z,65.2464
2023-04-18T09:36:55.104Z,65.5725
2023-04-18T09:37:56.084Z,66.1884
2023-04-18T09:38:57.458Z,66.8209
2023-04-18T09:39:58.220Z,66.8585
2023-04-18T09:40:59.183Z,67.1675
2023-04-18T09:42:00.250Z,67.6467
2023-04-18T09:43:01.277Z,67.7655
2023-04-18T09:44:02.371Z,67.5700
2023-04-18T09:45:03.452Z,66.9713
2023-04-18T09:46:04.515Z,66.4837
2023-04-18T09:47:05.459Z,66.4295
2023-04-18T09:48:06.537Z,66.3055
2023-04-18T09:49:09.676Z,66.7702
2023-04-18T09:50:08.662Z,67.4313
2023-04-18T09:51:09.689Z,68.2269
2023-04-18T09:52:10.689Z,68.3445
2023-04-18T09:53:11.701Z,68.2746
2023-04-18T09:54:12.931Z,67.7378
2023-04-18T09:55:13.902Z,67.8388
2023-04-18T09:56:14.846Z,67.9723
2023-04-18T09:57:15.874Z,68.3946
2023-04-18T09:58:16.944Z,68.5092
2023-04-18T09:59:20.507Z,68.4132
2023-04-18T10:00:18.993Z,67.8786
2023-04-18T10:01:20.135Z,68.0015
2023-04-18T10:02:21.192Z,67.4588
2023-04-18T10:03:22.256Z,67.3859
2023-04-18T10:04:23.213Z,67.4722
2023-04-18T10:05:24.250Z,67.6983
2023-04-18T10:06:25.238Z,66.0573
2023-04-18T10:07:26.325Z,65.7164
2023-04-18T10:08:27.356Z,66.1552
2023-04-18T10:09:28.455Z,67.0288
2023-04-18T10:10:29.530Z,66.9075
2023-04-18T10:11:30.546Z,66.6234
2023-04-18T10:12:31.508Z,66.9390
2023-04-18T10:13:32.568Z,67.1988
2023-04-18T10:14:33.602Z,67.3604
2023-04-18T10:15:34.638Z,67.1217
2023-04-18T10:16:36.407Z,66.3014
2023-04-18T10:17:36.762Z,65.7086
2023-04-18T10:18:38.087Z,65.8590
2023-04-18T10:19:38.791Z,65.7428
2023-04-18T10:20:40.083Z,66.3077
2023-04-18T10:21:41.001Z,66.6610
2023-04-18T10:22:41.935Z,66.5240
2023-04-18T10:23:42.949Z,64.8728
2023-04-18T10:24:44.008Z,65.7710
2023-04-18T10:25:45.008Z,66.4542
2023-04-18T10:26:46.156Z,66.3706
2023-04-18T10:27:47.177Z,66.9314
2023-04-18T10:28:48.180Z,67.0060
2023-04-18T10:29:49.183Z,67.0917
2023-04-18T10:30:50.242Z,66.4212
2023-04-18T10:31:51.383Z,66.9028
2023-04-18T10:32:52.336Z,67.7682
2023-04-18T10:34:04.014Z,67.4728
2023-04-18T10:34:54.433Z,67.7138
2023-04-18T10:35:55.401Z,67.7534
2023-04-18T10:36:56.475Z,67.6131
2023-04-18T10:37:57.481Z,67.8014
2023-04-18T10:38:58.520Z,68.1206
2023-04-18T10:39:59.532Z,67.9722
2023-04-18T10:41:00.594Z,67.2857
2023-04-18T10:42:01.657Z,67.6857
2023-04-18T10:43:02.779Z,67.2714
2023-04-18T10:44:03.694Z,66.0803
2023-04-18T10:45:04.729Z,66.4370
2023-04-18T10:46:07.439Z,66.3349
2023-04-18T10:47:06.921Z,66.5144
2023-04-18T10:48:07.873Z,66.9175
2023-04-18T10:49:08.886Z,66.7629
2023-04-18T10:50:09.926Z,65.6833
2023-04-18T10:51:11.098Z,65.8606
2023-04-18T10:52:13.364Z,66.5543
2023-04-18T10:53:13.072Z,67.0139
2023-04-18T10:54:14.212Z,66.7419
2023-04-18T10:55:15.168Z,67.0356
2023-04-18T10:56:16.190Z,67.1307
2023-04-18T10:57:17.302Z,66.6534
2023-04-18T10:58:18.168Z,66.5397
2023-04-18T10:59:19.234Z,66.7916
2023-04-18T11:00:20.416Z,66.2495
2023-04-18T11:01:21.331Z,65.1319
2023-04-18T11:02:22.396Z,65.0942
2023-04-18T11:03:23.506Z,65.8355
2023-04-18T11:04:24.510Z,65.4652
2023-04-18T11:05:25.463Z,64.9852
2023-04-18T11:06:26.479Z,64.7136
2023-04-18T11:07:29.921Z,64.6203
2023-04-18T11:08:28.572Z,63.4107
2023-04-18T11:09:29.614Z,63.3856
2023-04-18T11:10:30.667Z,64.1827
2023-04-18T11:11:31.763Z,65.0509
2023-04-18T11:12:32.826Z,65.1257
2023-04-18T11:13:33.850Z,65.5472
2023-04-18T11:14:35.016Z,65.4607
2023-04-18T11:15:36.105Z,65.2226
2023-04-18T11:16:36.979Z,64.9535
2023-04-18T11:17:38.034Z,64.9917
2023-04-18T11:18:39.042Z,64.8980
2023-04-18T11:19:40.092Z,64.3654
2023-04-18T11:20:41.120Z,63.8238
2023-04-18T11:21:42.188Z,63.1713
2023-04-18T11:22:43.206Z,63.7110
2023-04-18T11:23:44.290Z,64.6888
2023-04-18T11:24:45.264Z,63.9469
2023-04-18T11:25:46.308Z,64.0486
2023-04-18T11:26:47.299Z,64.0760
2023-04-18T11:27:48.376Z,64.3069
2023-04-18T11:28:49.401Z,64.1543
2023-04-18T11:29:50.409Z,63.9379
2023-04-18T11:30:51.438Z,64.3661
2023-04-18T11:31:52.831Z,65.4236
2023-04-18T11:32:53.565Z,65.7386
2023-04-18T11:33:54.583Z,65.4551
2023-04-18T11:34:55.570Z,65.2668
2023-04-18T11:35:56.635Z,64.1014
2023-04-18T11:36:57.647Z,64.2953
2023-04-18T11:37:58.664Z,64.5104
2023-04-18T11:38:59.793Z,64.8590
2023-04-18T11:40:00.773Z,65.0664
2023-04-18T11:41:01.811Z,64.9774
2023-04-18T11:42:02.842Z,65.2528
2023-04-18T11:43:03.875Z,65.1807
2023-04-18T11:44:04.989Z,64.9066
2023-04-18T11:45:05.941Z,64.7094
2023-04-18T11:46:07.010Z,63.9721
2023-04-18T11:47:08.022Z,63.9019
2023-04-18T11:48:09.191Z,63.7613
2023-04-18T11:49:10.132Z,63.5821
2023-04-18T11:50:11.121Z,63.2504
2023-04-18T11:51:12.326Z,63.9496
2023-04-18T11:52:13.494Z,63.6768
2023-04-18T11:53:14.232Z,61.9736
2023-04-18T11:54:15.441Z,61.2402
2023-04-18T11:55:16.318Z,61.7616
2023-04-18T11:56:17.373Z,61.3462
2023-04-18T11:57:18.387Z,61.2529
2023-04-18T11:58:19.423Z,61.1556
2023-04-18T11:59:20.500Z,61.6299
2023-04-18T12:00:21.527Z,62.4261
2023-04-18T12:01:22.906Z,62.8215
2023-04-18T12:02:23.665Z,62.8857
2023-04-18T12:03:25.134Z,62.6378
2023-04-18T12:04:25.754Z,62.5861
2023-04-18T12:05:26.804Z,62.1354
2023-04-18T12:06:27.763Z,61.2942
2023-04-18T12:07:28.879Z,59.9640
2023-04-18T12:08:29.771Z,60.0382
2023-04-18T12:09:30.858Z,60.3307
2023-04-18T12:10:31.883Z,60.0807
2023-04-18T12:11:32.878Z,59.6101
2023-04-18T12:12:33.905Z,59.7461
2023-04-18T12:13:34.961Z,59.5369
2023-04-18T12:14:36.060Z,59.8644
2023-04-18T12:15:37.019Z,59.6223
2023-04-18T12:16:38.064Z,59.5800
2023-04-18T12:17:39.274Z,59.3349